createdAt,value
2023-05-24T00:01:26.067Z,101160.20
2023-05-24T00:04:01.959Z,101161.80
2023-05-24T00:06:31.072Z,101167.40
2023-05-24T00:08:59.758Z,101159.60
2023-05-24T00:11:28.573Z,101160.20
2023-05-24T00:13:57.954Z,101157.00
2023-05-24T00:16:26.674Z,101153.00
2023-05-24T00:18:55.428Z,101157.20
2023-05-24T00:21:24.218Z,101160.40
2023-05-24T00:23:52.901Z,101164.40
2023-05-24T00:26:22.002Z,101164.80
2023-05-24T00:28:54.886Z,101162.60
2023-05-24T00:31:23.610Z,101165.80
2023-05-24T00:33:52.376Z,101169.20
2023-05-24T00:36:21.358Z,101167.20
2023-05-24T00:38:50.144Z,101163.60
2023-05-24T00:41:19.142Z,101160.60
2023-05-24T00:43:47.828Z,101158.00
2023-05-24T00:46:28.159Z,101155.00
2023-05-24T00:48:57.908Z,101158.80
2023-05-24T00:51:31.096Z,101153.00
2023-05-24T00:54:01.112Z,101156.60
2023-05-24T00:56:31.926Z,101160.20
2023-05-24T00:59:01.452Z,101160.40
2023-05-24T01:01:31.546Z,101164.20
2023-05-24T01:04:00.940Z,101164.00
2023-05-24T01:06:31.013Z,101160.80
2023-05-24T01:09:44.288Z,101164.60
2023-05-24T01:12:41.197Z,101161.40
2023-05-24T01:16:00.413Z,101166.40
2023-05-24T01:18:39.473Z,101169.60
2023-05-24T01:21:39.105Z,101172.40
2023-05-24T01:25:09.660Z,101162.80
2023-05-24T01:27:39.817Z,101169.00
2023-05-24T01:30:10.191Z,101174.60
2023-05-24T01:32:39.311Z,101178.40
2023-05-24T01:35:08.693Z,101180.20
2023-05-24T01:37:37.530Z,101185.00
2023-05-24T01:40:07.813Z,101187.00
2023-05-24T01:42:59.192Z,101191.60
2023-05-24T01:46:03.383Z,101192.00
2023-05-24T01:48:40.211Z,101195.80
2023-05-24T01:51:11.936Z,101193.80
2023-05-24T01:53:47.732Z,101191.80
2023-05-24T01:56:20.996Z,101196.00
2023-05-24T01:58:53.086Z,101196.20
2023-05-24T02:01:21.906Z,101199.40
2023-05-24T02:03:51.357Z,101202.80
2023-05-24T02:06:20.265Z,101203.80
2023-05-24T02:08:48.954Z,101201.40
2023-05-24T02:11:17.749Z,101208.40
2023-05-24T02:13:48.786Z,101204.80
2023-05-24T02:16:18.656Z,101202.40
2023-05-24T02:18:48.391Z,101207.40
2023-05-24T02:21:17.034Z,101201.00
2023-05-24T02:23:46.411Z,101198.80
2023-05-24T02:26:17.934Z,101201.60
2023-05-24T02:28:46.555Z,101197.20
2023-05-24T02:31:15.703Z,101196.00
2023-05-24T02:33:44.940Z,101201.80
2023-05-24T02:36:13.729Z,101202.40
2023-05-24T02:38:42.314Z,101203.20
2023-05-24T02:41:12.195Z,101204.80
2023-05-24T02:43:40.940Z,101200.60
2023-05-24T02:46:09.821Z,101197.20
2023-05-24T02:48:38.499Z,101200.80
2023-05-24T02:51:07.462Z,101203.00
2023-05-24T02:53:36.175Z,101200.00
2023-05-24T02:56:05.061Z,101202.60
2023-05-24T02:58:34.570Z,101200.20
2023-05-24T03:01:03.150Z,101204.20
2023-05-24T03:03:32.227Z,101205.40
2023-05-24T03:06:01.614Z,101206.40
2023-05-24T03:08:30.275Z,101208.60
2023-05-24T03:10:59.029Z,101212.40
2023-05-24T03:13:27.620Z,101214.40
2023-05-24T03:15:56.846Z,101218.40
2023-05-24T03:18:25.608Z,101218.80
2023-05-24T03:20:55.420Z,101218.40
2023-05-24T03:23:24.203Z,101217.60
2023-05-24T03:25:53.681Z,101216.00
2023-05-24T03:28:22.723Z,101215.80
2023-05-24T03:30:51.595Z,101210.20
2023-05-24T03:33:21.011Z,101220.00
2023-05-24T03:35:50.199Z,101224.40
2023-05-24T03:38:18.994Z,101223.60
2023-05-24T03:40:48.084Z,101223.60
2023-05-24T03:43:20.767Z,101221.40
2023-05-24T03:45:53.628Z,101224.40
2023-05-24T03:48:22.548Z,101222.40
2023-05-24T03:50:52.974Z,101227.00
2023-05-24T03:53:23.259Z,101229.80
2023-05-24T03:55:52.491Z,101230.60
2023-05-24T03:58:21.384Z,101229.60
2023-05-24T04:00:49.973Z,101231.00
2023-05-24T04:03:20.283Z,101231.00
2023-05-24T04:05:49.391Z,101231.60
2023-05-24T04:08:18.347Z,101234.80
2023-05-24T04:10:46.978Z,101236.00
2023-05-24T04:13:15.752Z,101242.80
2023-05-24T04:15:44.455Z,101239.80
2023-05-24T04:18:13.517Z,101244.80
2023-05-24T04:20:42.619Z,101246.60
2023-05-24T04:23:11.628Z,101255.20
2023-05-24T04:25:40.621Z,101254.20
2023-05-24T04:28:09.728Z,101258.40
2023-05-24T04:30:38.829Z,101255.40
2023-05-24T04:33:08.782Z,101263.80
2023-05-24T04:35:38.557Z,101266.00
2023-05-24T04:38:07.749Z,101264.80
2023-05-24T04:40:36.331Z,101268.00
2023-05-24T04:43:07.760Z,101270.80
2023-05-24T04:45:36.469Z,101274.00
2023-05-24T04:48:05.804Z,101276.40
2023-05-24T04:50:35.792Z,101275.60
2023-05-24T04:53:05.090Z,101277.00
2023-05-24T04:55:34.171Z,101281.00
2023-05-24T04:58:02.995Z,101287.60
2023-05-24T05:00:31.871Z,101294.40
2023-05-24T05:03:00.522Z,101299.00
2023-05-24T05:05:29.357Z,101299.60
2023-05-24T05:07:58.347Z,101298.80
2023-05-24T05:10:27.488Z,101302.80
2023-05-24T05:12:56.326Z,101301.20
2023-05-24T05:15:25.008Z,101302.00
2023-05-24T05:17:54.000Z,101301.40
2023-05-24T05:20:23.559Z,101304.00
2023-05-24T05:22:52.506Z,101300.40
2023-05-24T05:25:21.603Z,101301.20
2023-05-24T05:27:50.398Z,101301.40
2023-05-24T05:30:19.081Z,101300.60
2023-05-24T05:32:47.869Z,101302.20
2023-05-24T05:35:16.765Z,101304.20
2023-05-24T05:37:45.443Z,101308.80
2023-05-24T05:40:14.136Z,101312.80
2023-05-24T05:42:43.023Z,101312.80
2023-05-24T05:45:12.282Z,101312.60
2023-05-24T05:47:41.559Z,101311.00
2023-05-24T05:50:11.059Z,101313.20
2023-05-24T05:52:39.820Z,101310.60
2023-05-24T05:55:09.974Z,101314.60
2023-05-24T05:57:38.626Z,101312.20
2023-05-24T06:00:09.042Z,101315.80
2023-05-24T06:02:43.453Z,101317.40
2023-05-24T06:05:13.874Z,101318.80
2023-05-24T06:07:43.406Z,101325.00
2023-05-24T06:10:12.521Z,101323.80
2023-05-24T06:12:41.407Z,101325.60
2023-05-24T06:15:10.828Z,101327.60
2023-05-24T06:17:39.837Z,101329.00
2023-05-24T06:20:12.274Z,101331.40
2023-05-24T06:22:42.950Z,101338.40
2023-05-24T06:25:14.969Z,101339.20
2023-05-24T06:27:43.582Z,101343.20
2023-05-24T06:30:13.822Z,101356.60
2023-05-24T06:32:42.616Z,101357.20
2023-05-24T06:35:11.637Z,101353.00
2023-05-24T06:37:40.245Z,101360.80
2023-05-24T06:40:10.175Z,101364.80
2023-05-24T06:42:40.287Z,101365.00
2023-05-24T06:45:09.900Z,101366.60
2023-05-24T06:47:39.021Z,101369.80
2023-05-24T06:50:09.621Z,101376.20
2023-05-24T06:52:38.204Z,101378.00
2023-05-24T06:55:07.752Z,101376.20
2023-05-24T06:57:36.410Z,101378.00
2023-05-24T07:00:12.869Z,101384.60
2023-05-24T07:02:42.500Z,101384.40
2023-05-24T07:05:14.340Z,101382.00
2023-05-24T07:07:44.067Z,101380.00
2023-05-24T07:10:12.856Z,101382.20
2023-05-24T07:12:41.647Z,101385.00
2023-05-24T07:15:10.729Z,101386.00
2023-05-24T07:17:39.328Z,101384.60
2023-05-24T07:20:12.125Z,101389.20
2023-05-24T07:22:41.721Z,101389.20
2023-05-24T07:25:11.015Z,101393.60
2023-05-24T07:27:39.693Z,101386.60
2023-05-24T07:30:23.513Z,101389.40
2023-05-24T07:32:58.603Z,101385.40
2023-05-24T07:35:28.861Z,101388.00
2023-05-24T07:37:57.475Z,101389.20
2023-05-24T07:40:26.980Z,101384.20
2023-05-24T07:42:55.879Z,101388.00
2023-05-24T07:45:24.657Z,101388.60
2023-05-24T07:47:56.566Z,101390.80
2023-05-24T07:50:26.848Z,101393.60
2023-05-24T07:52:58.507Z,101392.40
2023-05-24T07:55:28.380Z,101395.00
2023-05-24T07:57:57.316Z,101398.40
2023-05-24T08:00:26.106Z,101401.60
2023-05-24T08:02:54.869Z,101405.20
2023-05-24T08:05:24.406Z,101397.00
2023-05-24T08:07:53.905Z,101404.00
2023-05-24T08:10:22.640Z,101402.00
2023-05-24T08:12:55.067Z,101401.20
2023-05-24T08:15:23.764Z,101397.60
2023-05-24T08:17:52.578Z,101391.00
2023-05-24T08:20:21.529Z,101389.20
2023-05-24T08:22:50.630Z,101380.20
2023-05-24T08:25:20.465Z,101373.20
2023-05-24T08:27:49.384Z,101371.20
2023-05-24T08:30:18.854Z,101372.60
2023-05-24T08:32:47.780Z,101363.40
2023-05-24T08:35:20.975Z,101357.00
2023-05-24T08:37:51.043Z,101360.80
2023-05-24T08:40:19.776Z,101363.20
2023-05-24T08:42:50.570Z,101363.20
2023-05-24T08:45:22.748Z,101369.60
2023-05-24T08:47:52.451Z,101378.00
2023-05-24T08:50:22.073Z,101384.60
2023-05-24T08:52:52.404Z,101391.20
2023-05-24T08:55:22.333Z,101394.80
2023-05-24T08:57:51.703Z,101389.40
2023-05-24T09:00:21.221Z,101393.00
2023-05-24T09:02:50.529Z,101392.80
2023-05-24T09:05:22.271Z,101391.40
2023-05-24T09:07:51.589Z,101395.20
2023-05-24T09:10:24.564Z,101395.40
2023-05-24T09:12:57.935Z,101401.20
2023-05-24T09:15:27.361Z,101407.20
2023-05-24T09:17:56.394Z,101408.40
2023-05-24T09:20:25.626Z,101408.40
2023-05-24T09:22:54.344Z,101409.40
2023-05-24T09:25:23.243Z,101409.00
2023-05-24T09:27:54.168Z,101404.80
2023-05-24T09:30:23.652Z,101409.40
2023-05-24T09:33:00.859Z,101408.40
2023-05-24T09:35:30.162Z,101414.20
2023-05-24T09:38:02.243Z,101417.60
2023-05-24T09:40:31.224Z,101423.40
2023-05-24T09:43:09.921Z,101423.20
2023-05-24T09:45:43.624Z,101423.60
2023-05-24T09:48:13.991Z,101428.80
2023-05-24T09:50:43.549Z,101431.40
2023-05-24T09:53:12.385Z,101428.40
2023-05-24T09:55:41.165Z,101435.00
2023-05-24T09:58:11.868Z,101432.40
2023-05-24T10:00:42.681Z,101443.20
2023-05-24T10:06:02.642Z,101448.40
2023-05-24T10:08:33.874Z,101456.20
2023-05-24T10:11:06.468Z,101453.40
2023-05-24T10:13:36.848Z,101460.60
2023-05-24T10:16:06.348Z,101461.40
2023-05-24T10:18:35.495Z,101458.40
2023-05-24T10:21:09.830Z,101454.40
2023-05-24T10:23:44.239Z,101448.60
2023-05-24T10:26:14.778Z,101446.60
2023-05-24T10:28:53.444Z,101452.40
2023-05-24T10:31:32.585Z,101443.20
2023-05-24T10:34:07.810Z,101443.20
2023-05-24T10:36:40.813Z,101443.40
2023-05-24T10:39:13.683Z,101443.20
2023-05-24T10:41:42.629Z,101446.40
2023-05-24T10:41:46.419Z,101443.40
2023-05-24T10:44:13.565Z,101442.40
2023-05-24T10:47:12.469Z,101446.60
2023-05-24T10:49:59.453Z,101446.80
2023-05-24T10:52:36.618Z,101448.80
2023-05-24T10:55:09.853Z,101448.40
2023-05-24T10:57:40.417Z,101449.00
2023-05-24T11:00:33.797Z,101454.00
2023-05-24T11:03:09.470Z,101455.60
2023-05-24T11:05:50.835Z,101459.40
2023-05-24T11:08:36.134Z,101456.80
2023-05-24T11:11:23.299Z,101460.80
2023-05-24T11:13:58.173Z,101464.20
2023-05-24T11:16:35.567Z,101458.20
2023-05-24T11:19:29.789Z,101455.00
2023-05-24T11:21:59.224Z,101451.80
2023-05-24T11:24:29.453Z,101445.20
2023-05-24T11:26:59.844Z,101439.60
2023-05-24T11:29:30.315Z,101446.80
2023-05-24T11:32:10.548Z,101447.20
2023-05-24T11:34:40.451Z,101443.40
2023-05-24T11:37:09.770Z,101442.20
2023-05-24T11:39:38.957Z,101447.20
2023-05-24T11:42:09.182Z,101452.20
2023-05-24T11:44:40.723Z,101456.40
2023-05-24T11:47:09.612Z,101461.00
2023-05-24T11:49:38.300Z,101467.20
2023-05-24T11:52:07.724Z,101467.80
2023-05-24T11:54:37.732Z,101466.60
2023-05-24T11:57:06.958Z,101466.60
2023-05-24T11:59:38.282Z,101469.20
2023-05-24T12:02:10.952Z,101466.60
2023-05-24T12:04:40.365Z,101463.00
2023-05-24T12:07:12.817Z,101460.00
2023-05-24T12:09:41.519Z,101462.20
2023-05-24T12:12:10.611Z,101455.80
2023-05-24T12:14:40.798Z,101449.40
2023-05-24T12:17:18.639Z,101448.00
2023-05-24T12:19:53.939Z,101450.80
2023-05-24T12:22:31.040Z,101450.20
2023-05-24T12:24:59.648Z,101449.20
2023-05-24T12:27:28.951Z,101451.80
2023-05-24T12:30:06.664Z,101451.80
2023-05-24T12:32:35.378Z,101454.80
2023-05-24T12:35:05.261Z,101454.80
2023-05-24T12:37:34.043Z,101458.20
2023-05-24T12:40:05.597Z,101455.60
2023-05-24T12:42:34.287Z,101451.60
2023-05-24T12:45:02.966Z,101450.20
2023-05-24T12:47:32.505Z,101449.20
2023-05-24T12:50:01.168Z,101449.00
2023-05-24T12:52:29.851Z,101452.80
2023-05-24T12:54:58.950Z,101450.40
2023-05-24T12:57:27.768Z,101456.20
2023-05-24T12:59:56.521Z,101457.40
2023-05-24T13:02:25.240Z,101466.60
2023-05-24T13:04:54.263Z,101461.40
2023-05-24T13:07:23.302Z,101461.00
2023-05-24T13:09:51.987Z,101461.20
2023-05-24T13:12:21.864Z,101455.80
2023-05-24T13:14:52.788Z,101462.00
2023-05-24T13:17:22.299Z,101460.20
2023-05-24T13:19:51.266Z,101460.60
2023-05-24T13:22:21.017Z,101465.60
2023-05-24T13:24:49.640Z,101467.60
2023-05-24T13:27:18.426Z,101468.40
2023-05-24T13:29:59.611Z,101471.00
2023-05-24T13:32:30.149Z,101479.60
2023-05-24T13:34:59.451Z,101478.40
2023-05-24T13:37:28.336Z,101481.00
2023-05-24T13:39:57.458Z,101478.20
2023-05-24T13:42:26.374Z,101484.20
2023-05-24T13:44:56.539Z,101482.00
2023-05-24T13:47:38.824Z,101480.00
2023-05-24T13:50:10.403Z,101479.00
2023-05-24T13:52:39.909Z,101476.40
2023-05-24T13:55:09.377Z,101473.00
2023-05-24T14:00:10.985Z,101465.80
2023-05-24T14:02:40.957Z,101465.00
2023-05-24T14:05:25.807Z,101464.00
2023-05-24T14:08:04.369Z,101461.60
2023-05-24T14:10:37.359Z,101468.80
2023-05-24T14:15:39.151Z,101472.60
2023-05-24T14:18:08.886Z,101470.60
2023-05-24T14:20:40.382Z,101473.00
2023-05-24T14:23:10.386Z,101466.40
2023-05-24T14:25:39.593Z,101471.20
2023-05-24T14:28:08.973Z,101472.60
2023-05-24T14:30:38.648Z,101477.40
2023-05-24T14:33:08.670Z,101477.40
2023-05-24T14:35:41.430Z,101473.80
2023-05-24T14:38:11.755Z,101479.40
2023-05-24T14:40:41.274Z,101480.60
2023-05-24T14:43:11.166Z,101483.00
2023-05-24T14:45:43.916Z,101483.40
2023-05-24T14:48:13.085Z,101476.60
2023-05-24T14:50:42.746Z,101475.00
2023-05-24T14:53:14.989Z,101476.60
2023-05-24T14:55:44.720Z,101471.80
2023-05-24T14:58:14.023Z,101473.40
2023-05-24T15:00:44.264Z,101475.20
2023-05-24T15:03:15.005Z,101479.60
2023-05-24T15:05:44.018Z,101470.80
2023-05-24T15:08:13.420Z,101476.20
2023-05-24T15:10:45.340Z,101480.60
2023-05-24T15:13:14.397Z,101482.80
2023-05-24T15:15:43.780Z,101484.80
2023-05-24T15:18:12.955Z,101483.60
2023-05-24T15:20:42.142Z,101486.80
2023-05-24T15:23:11.376Z,101487.20
2023-05-24T15:25:41.303Z,101482.40
2023-05-24T15:28:13.194Z,101484.00
2023-05-24T15:30:46.461Z,101488.20
2023-05-24T15:33:17.419Z,101489.60
2023-05-24T15:35:46.405Z,101493.60
2023-05-24T15:38:17.948Z,101499.00
2023-05-24T15:40:47.382Z,101495.20
2023-05-24T15:43:19.289Z,101497.20
2023-05-24T15:45:48.578Z,101494.80
2023-05-24T15:48:17.303Z,101495.60
2023-05-24T15:53:18.716Z,101498.20
2023-05-24T15:55:49.502Z,101494.80
2023-05-24T15:58:18.665Z,101498.20
2023-05-24T16:00:47.383Z,101502.00
2023-05-24T16:03:16.260Z,101500.80
2023-05-24T16:05:45.071Z,101501.60
2023-05-24T16:08:16.423Z,101503.80
2023-05-24T16:10:46.774Z,101501.40
2023-05-24T16:13:19.098Z,101499.20
2023-05-24T16:15:53.466Z,101499.00
2023-05-24T16:18:24.729Z,101500.80
2023-05-24T16:20:55.924Z,101496.20
2023-05-24T16:23:27.979Z,101498.20
2023-05-24T16:26:00.629Z,101500.00
2023-05-24T16:28:32.517Z,101498.80
2023-05-24T16:31:04.652Z,101503.40
2023-05-24T16:33:37.722Z,101503.60
2023-05-24T16:36:08.709Z,101504.40
2023-05-24T16:38:40.209Z,101512.40
2023-05-24T16:41:10.318Z,101512.80
2023-05-24T16:43:39.115Z,101517.80
2023-05-24T16:46:07.899Z,101522.00
2023-05-24T16:48:37.236Z,101519.60
2023-05-24T16:51:05.975Z,101525.40
2023-05-24T16:53:34.762Z,101524.80
2023-05-24T16:56:03.857Z,101523.20
2023-05-24T16:58:32.544Z,101521.80
2023-05-24T17:01:01.708Z,101520.60
2023-05-24T17:03:32.996Z,101520.00
2023-05-24T17:06:03.885Z,101529.80
2023-05-24T17:08:38.052Z,101529.20
2023-05-24T17:11:07.459Z,101531.20
2023-05-24T17:13:36.551Z,101532.40
2023-05-24T17:16:05.829Z,101533.80
2023-05-24T17:18:34.554Z,101533.80
2023-05-24T17:21:05.386Z,101529.80
2023-05-24T17:23:39.969Z,101528.60
2023-05-24T17:26:09.077Z,101531.80
2023-05-24T17:28:37.796Z,101538.60
2023-05-24T17:31:09.754Z,101539.20
2023-05-24T17:33:38.443Z,101538.20
2023-05-24T17:36:07.738Z,101539.00
2023-05-24T17:38:39.909Z,101540.00
2023-05-24T17:41:10.009Z,101545.60
2023-05-24T17:43:40.480Z,101549.00
2023-05-24T17:46:09.788Z,101551.80
2023-05-24T17:48:43.103Z,101554.20
2023-05-24T17:51:11.977Z,101559.80
2023-05-24T17:53:43.547Z,101564.00
2023-05-24T17:56:12.995Z,101566.40
2023-05-24T17:58:42.101Z,101561.20
2023-05-24T18:01:12.528Z,101568.40
2023-05-24T18:03:41.896Z,101566.40
2023-05-24T18:06:10.723Z,101575.80
2023-05-24T18:08:43.996Z,101574.80
2023-05-24T18:11:14.108Z,101579.60
2023-05-24T18:13:43.662Z,101574.60
2023-05-24T18:16:13.518Z,101579.00
2023-05-24T18:18:44.291Z,101576.20
2023-05-24T18:21:13.494Z,101576.00
2023-05-24T18:23:42.885Z,101579.80
2023-05-24T18:26:12.366Z,101579.60
2023-05-24T18:28:42.333Z,101584.00
2023-05-24T18:31:11.495Z,101588.60
2023-05-24T18:33:40.530Z,101593.00
2023-05-24T18:36:09.397Z,101594.80
2023-05-24T18:38:40.438Z,101598.60
2023-05-24T18:41:10.161Z,101599.00
2023-05-24T18:43:39.361Z,101595.40
2023-05-24T18:46:09.159Z,101598.20
2023-05-24T18:48:38.052Z,101601.60
2023-05-24T18:51:07.016Z,101597.40
2023-05-24T18:53:36.458Z,101606.80
2023-05-24T18:56:06.158Z,101614.60
2023-05-24T18:58:34.845Z,101620.60
2023-05-24T19:01:03.810Z,101623.60
2023-05-24T19:03:32.735Z,101625.80
2023-05-24T19:06:01.834Z,101629.00
2023-05-24T19:08:30.619Z,101628.00
2023-05-24T19:10:59.615Z,101630.40
2023-05-24T19:13:28.352Z,101633.80
2023-05-24T19:15:57.494Z,101637.00
2023-05-24T19:18:26.494Z,101637.80
2023-05-24T19:20:55.177Z,101644.80
2023-05-24T19:23:23.865Z,101637.60
2023-05-24T19:25:52.553Z,101637.80
2023-05-24T19:28:21.303Z,101644.00
2023-05-24T19:30:50.129Z,101646.20
2023-05-24T19:33:18.874Z,101649.80
2023-05-24T19:35:47.815Z,101650.20
2023-05-24T19:38:18.119Z,101647.00
2023-05-24T19:40:47.640Z,101656.60
2023-05-24T19:43:16.329Z,101659.40
2023-05-24T19:45:45.413Z,101662.00
2023-05-24T19:48:14.725Z,101662.00
2023-05-24T19:50:43.408Z,101663.80
2023-05-24T19:53:15.417Z,101662.40
2023-05-24T19:55:44.242Z,101661.20
2023-05-24T19:58:12.952Z,101664.00
2023-05-24T20:00:42.255Z,101663.40
2023-05-24T20:03:11.736Z,101666.00
2023-05-24T20:05:40.344Z,101672.40
2023-05-24T20:08:09.028Z,101670.00
2023-05-24T20:10:39.265Z,101674.00
2023-05-24T20:13:08.357Z,101675.60
2023-05-24T20:15:36.942Z,101679.20
2023-05-24T20:18:06.448Z,101682.40
2023-05-24T20:20:35.755Z,101683.80
2023-05-24T20:23:04.851Z,101683.40
2023-05-24T20:25:33.535Z,101682.00
2023-05-24T20:28:02.426Z,101684.80
2023-05-24T20:30:31.602Z,101682.20
2023-05-24T20:33:00.351Z,101681.80
2023-05-24T20:35:29.302Z,101685.60
2023-05-24T20:37:57.991Z,101681.00
2023-05-24T20:40:27.184Z,101682.40
2023-05-24T20:42:56.177Z,101685.00
2023-05-24T20:45:25.295Z,101686.60
2023-05-24T20:47:55.861Z,101685.00
2023-05-24T20:50:24.595Z,101688.60
2023-05-24T20:52:54.072Z,101686.80
2023-05-24T20:55:24.614Z,101683.40
2023-05-24T20:57:54.660Z,101688.80
2023-05-24T21:00:23.435Z,101689.60
2023-05-24T21:02:52.355Z,101688.00
2023-05-24T21:05:21.230Z,101695.20
2023-05-24T21:07:50.112Z,101692.80
2023-05-24T21:10:19.366Z,101690.40
2023-05-24T21:12:49.152Z,101694.20
2023-05-24T21:15:17.811Z,101695.40
2023-05-24T21:17:46.761Z,101705.80
2023-05-24T21:20:15.547Z,101704.00
2023-05-24T21:22:46.432Z,101709.60
2023-05-24T21:25:15.215Z,101714.80
2023-05-24T21:27:44.028Z,101714.60
2023-05-24T21:30:14.083Z,101718.40
2023-05-24T21:32:42.837Z,101719.80
2023-05-24T21:35:12.076Z,101715.20
2023-05-24T21:37:40.913Z,101716.20
2023-05-24T21:40:10.585Z,101721.80
2023-05-24T21:42:39.403Z,101728.00
2023-05-24T21:45:09.013Z,101729.20
2023-05-24T21:47:37.797Z,101730.60
2023-05-24T21:50:07.594Z,101728.60
2023-05-24T21:52:36.213Z,101724.40
2023-05-24T21:55:06.135Z,101734.40
2023-05-24T21:57:34.910Z,101739.80
2023-05-24T22:00:04.515Z,101740.00
2023-05-24T22:02:34.898Z,101742.00
2023-05-24T22:05:05.483Z,101744.40
2023-05-24T22:07:34.160Z,101748.00
2023-05-24T22:10:02.858Z,101751.00
2023-05-24T22:12:31.638Z,101750.00
2023-05-24T22:15:02.436Z,101753.20
2023-05-24T22:17:33.364Z,101753.60
2023-05-24T22:20:06.009Z,101759.20
2023-05-24T22:22:34.977Z,101760.00
2023-05-24T22:25:03.883Z,101752.80
2023-05-24T22:27:32.868Z,101759.00
2023-05-24T22:30:01.665Z,101757.20
2023-05-24T22:32:30.799Z,101756.00
2023-05-24T22:34:59.548Z,101757.60
2023-05-24T22:37:28.232Z,101757.80
2023-05-24T22:39:57.024Z,101758.00
2023-05-24T22:42:25.714Z,101761.00
2023-05-24T22:44:54.399Z,101758.00
2023-05-24T22:47:24.353Z,101748.60
2023-05-24T22:49:56.284Z,101754.60
2023-05-24T22:52:26.699Z,101753.80
2023-05-24T22:54:55.394Z,101757.40
2023-05-24T22:57:24.181Z,101755.40
2023-05-24T22:59:53.357Z,101762.40
2023-05-24T23:02:22.149Z,101755.20
2023-05-24T23:04:51.015Z,101754.00
2023-05-24T23:07:22.204Z,101752.20
2023-05-24T23:09:50.794Z,101753.00
2023-05-24T23:12:21.315Z,101749.00
2023-05-24T23:14:50.105Z,101747.20
2023-05-24T23:17:20.824Z,101748.40
2023-05-24T23:19:50.683Z,101749.80
2023-05-24T23:22:19.349Z,101749.80
2023-05-24T23:24:48.033Z,101752.00
2023-05-24T23:27:17.264Z,101756.80
2023-05-24T23:29:46.021Z,101759.40
2023-05-24T23:32:14.712Z,101760.80
2023-05-24T23:34:43.405Z,101763.20
2023-05-24T23:37:11.984Z,101759.20
2023-05-24T23:39:40.968Z,101765.20
2023-05-24T23:42:09.659Z,101762.20
2023-05-24T23:44:38.250Z,101766.80
2023-05-24T23:47:07.101Z,101772.40
2023-05-24T23:49:36.748Z,101773.60
2023-05-24T23:52:06.975Z,101777.60
2023-05-24T23:54:35.660Z,101774.60
2023-05-24T23:57:04.757Z,101773.40
2023-05-24T23:59:34.770Z,101770.40
